Terminal Aerodrome Forecast
Issued by NWS

Home | Current Version | Previous Version | Text Only | Print | Product List | Glossary On
Versions: 1 2 3 4 5 6 7 8 9 10 11 12 13 14 15 16
000
FTAK31 PAJN 040500
TAFAGY
TAF
PAGY 040524Z 0406/0506 21008KT P6SM OVC060
     FM041400 21004KT P6SM -RASN SCT015 OVC035
     FM041700 21005KT P6SM -RA SCT015 OVC035
      AMD LTD TO CLD VIS AND WIND=

USA.gov is the U.S. government's official web portal to all federal, state and local government web resources and services.